sensor_id;sensor_type;location;lat;lon;timestamp;temperature;humidity
9305;DHT22;4690;52.422;13.486;2022-07-22T00:05:52;19.00;99.90
9305;DHT22;4690;52.422;13.486;2022-07-22T00:08:18;18.90;99.90
9305;DHT22;4690;52.422;13.486;2022-07-22T00:10:44;19.00;99.90
9305;DHT22;4690;52.422;13.486;2022-07-22T00:13:10;19.10;99.90
9305;DHT22;4690;52.422;13.486;2022-07-22T00:15:35;19.00;99.90
9305;DHT22;4690;52.422;13.486;2022-07-22T00:18:01;19.00;99.90
9305;DHT22;4690;52.422;13.486;2022-07-22T00:20:27;19.00;99.90
9305;DHT22;4690;52.422;13.486;2022-07-22T00:22:53;19.00;99.90
9305;DHT22;4690;52.422;13.486;2022-07-22T00:25:19;18.90;99.90
9305;DHT22;4690;52.422;13.486;2022-07-22T00:27:44;19.00;99.90
9305;DHT22;4690;52.422;13.486;2022-07-22T00:30:11;19.00;99.90
9305;DHT22;4690;52.422;13.486;2022-07-22T00:32:37;19.00;99.90
9305;DHT22;4690;52.422;13.486;2022-07-22T00:35:03;18.90;99.90
9305;DHT22;4690;52.422;13.486;2022-07-22T00:37:30;18.90;99.90
9305;DHT22;4690;52.422;13.486;2022-07-22T00:39:55;18.90;99.90
9305;DHT22;4690;52.422;13.486;2022-07-22T00:42:21;18.90;99.90
9305;DHT22;4690;52.422;13.486;2022-07-22T00:44:47;18.80;99.90
9305;DHT22;4690;52.422;13.486;2022-07-22T00:47:13;18.80;99.90
9305;DHT22;4690;52.422;13.486;2022-07-22T00:49:39;18.80;99.90
9305;DHT22;4690;52.422;13.486;2022-07-22T00:52:05;18.80;99.90
9305;DHT22;4690;52.422;13.486;2022-07-22T00:54:32;18.80;99.90
9305;DHT22;4690;52.422;13.486;2022-07-22T00:56:58;18.80;99.90
9305;DHT22;4690;52.422;13.486;2022-07-22T00:59:24;18.80;99.90
9305;DHT22;4690;52.422;13.486;2022-07-22T01:01:50;18.80;99.90
9305;DHT22;4690;52.422;13.486;2022-07-22T01:04:16;18.70;99.90
9305;DHT22;4690;52.422;13.486;2022-07-22T01:06:42;18.70;99.90
9305;DHT22;4690;52.422;13.486;2022-07-22T01:09:12;18.70;99.90
9305;DHT22;4690;52.422;13.486;2022-07-22T01:11:39;18.70;99.90
9305;DHT22;4690;52.422;13.486;2022-07-22T01:14:06;18.60;99.90
9305;DHT22;4690;52.422;13.486;2022-07-22T01:16:31;18.60;99.90
9305;DHT22;4690;52.422;13.486;2022-07-22T01:18:57;18.50;99.90
9305;DHT22;4690;52.422;13.486;2022-07-22T01:21:23;18.50;99.90
9305;DHT22;4690;52.422;13.486;2022-07-22T01:23:49;18.50;99.90
9305;DHT22;4690;52.422;13.486;2022-07-22T01:26:16;18.60;99.90
9305;DHT22;4690;52.422;13.486;2022-07-22T01:28:43;18.50;99.90
9305;DHT22;4690;52.422;13.486;2022-07-22T01:31:09;18.40;99.90
9305;DHT22;4690;52.422;13.486;2022-07-22T01:33:36;18.40;99.90
9305;DHT22;4690;52.422;13.486;2022-07-22T01:36:03;18.40;99.90
9305;DHT22;4690;52.422;13.486;2022-07-22T01:38:29;18.40;99.90
9305;DHT22;4690;52.422;13.486;2022-07-22T01:40:55;18.40;99.90
9305;DHT22;4690;52.422;13.486;2022-07-22T01:43:21;18.40;99.90
9305;DHT22;4690;52.422;13.486;2022-07-22T01:45:49;18.40;99.90
9305;DHT22;4690;52.422;13.486;2022-07-22T01:48:16;18.30;99.90
9305;DHT22;4690;52.422;13.486;2022-07-22T01:50:43;18.30;99.90
9305;DHT22;4690;52.422;13.486;2022-07-22T01:53:09;18.30;99.90
9305;DHT22;4690;52.422;13.486;2022-07-22T01:55:35;18.20;99.90
9305;DHT22;4690;52.422;13.486;2022-07-22T01:58:01;18.10;99.90
9305;DHT22;4690;52.422;13.486;2022-07-22T02:00:29;18.20;99.90
9305;DHT22;4690;52.422;13.486;2022-07-22T02:02:56;18.20;99.90
9305;DHT22;4690;52.422;13.486;2022-07-22T02:05:21;18.20;99.90
9305;DHT22;4690;52.422;13.486;2022-07-22T02:07:47;18.10;99.90
9305;DHT22;4690;52.422;13.486;2022-07-22T02:10:13;18.10;99.90
9305;DHT22;4690;52.422;13.486;2022-07-22T02:12:39;18.20;99.90
9305;DHT22;4690;52.422;13.486;2022-07-22T02:15:06;18.10;99.90
9305;DHT22;4690;52.422;13.486;2022-07-22T02:17:35;18.10;99.90
9305;DHT22;4690;52.422;13.486;2022-07-22T02:20:03;18.10;99.90
9305;DHT22;4690;52.422;13.486;2022-07-22T02:22:29;18.10;99.90
9305;DHT22;4690;52.422;13.486;2022-07-22T02:24:55;18.10;99.90
9305;DHT22;4690;52.422;13.486;2022-07-22T02:27:21;18.00;99.90
9305;DHT22;4690;52.422;13.486;2022-07-22T02:29:46;18.10;99.90
9305;DHT22;4690;52.422;13.486;2022-07-22T02:32:12;18.10;99.90
9305;DHT22;4690;52.422;13.486;2022-07-22T02:34:38;18.10;99.90
9305;DHT22;4690;52.422;13.486;2022-07-22T02:37:04;18.00;99.90
9305;DHT22;4690;52.422;13.486;2022-07-22T02:39:29;18.00;99.90
9305;DHT22;4690;52.422;13.486;2022-07-22T02:41:55;18.00;99.90
9305;DHT22;4690;52.422;13.486;2022-07-22T02:44:21;18.10;99.90
9305;DHT22;4690;52.422;13.486;2022-07-22T02:46:47;18.10;99.90
9305;DHT22;4690;52.422;13.486;2022-07-22T02:49:12;18.10;99.90
9305;DHT22;4690;52.422;13.486;2022-07-22T02:51:38;18.00;99.90
9305;DHT22;4690;52.422;13.486;2022-07-22T02:54:04;17.90;99.90
9305;DHT22;4690;52.422;13.486;2022-07-22T02:56:31;17.90;99.90
9305;DHT22;4690;52.422;13.486;2022-07-22T02:58:57;17.90;99.90
9305;DHT22;4690;52.422;13.486;2022-07-22T03:01:22;17.90;99.90
9305;DHT22;4690;52.422;13.486;2022-07-22T03:03:48;17.90;99.90
9305;DHT22;4690;52.422;13.486;2022-07-22T03:06:14;17.80;99.90
9305;DHT22;4690;52.422;13.486;2022-07-22T03:08:39;17.90;99.90
9305;DHT22;4690;52.422;13.486;2022-07-22T03:11:05;17.80;99.90
9305;DHT22;4690;52.422;13.486;2022-07-22T03:13:31;17.90;99.90
9305;DHT22;4690;52.422;13.486;2022-07-22T03:15:57;17.90;99.90
9305;DHT22;4690;52.422;13.486;2022-07-22T03:18:23;17.80;99.90
9305;DHT22;4690;52.422;13.486;2022-07-22T03:20:49;17.80;99.90
9305;DHT22;4690;52.422;13.486;2022-07-22T03:23:15;17.70;99.90
9305;DHT22;4690;52.422;13.486;2022-07-22T03:25:40;17.80;99.90
9305;DHT22;4690;52.422;13.486;2022-07-22T03:28:07;17.80;99.90
9305;DHT22;4690;52.422;13.486;2022-07-22T03:30:32;17.70;99.90
9305;DHT22;4690;52.422;13.486;2022-07-22T03:32:58;17.70;99.90
9305;DHT22;4690;52.422;13.486;2022-07-22T03:35:24;17.70;99.90
9305;DHT22;4690;52.422;13.486;2022-07-22T03:37:50;17.70;99.90
9305;DHT22;4690;52.422;13.486;2022-07-22T03:40:16;17.70;99.90
9305;DHT22;4690;52.422;13.486;2022-07-22T03:42:42;17.70;99.90
9305;DHT22;4690;52.422;13.486;2022-07-22T03:45:09;17.70;99.90
9305;DHT22;4690;52.422;13.486;2022-07-22T03:47:35;17.70;99.90
9305;DHT22;4690;52.422;13.486;2022-07-22T03:50:01;17.70;99.90
9305;DHT22;4690;52.422;13.486;2022-07-22T03:52:28;17.70;99.90
9305;DHT22;4690;52.422;13.486;2022-07-22T03:54:54;17.70;99.90
9305;DHT22;4690;52.422;13.486;2022-07-22T03:57:20;17.70;99.90
9305;DHT22;4690;52.422;13.486;2022-07-22T03:59:46;17.70;99.90
9305;DHT22;4690;52.422;13.486;2022-07-22T04:02:12;17.70;99.90
9305;DHT22;4690;52.422;13.486;2022-07-22T04:04:38;17.70;99.90
9305;DHT22;4690;52.422;13.486;2022-07-22T04:07:04;17.70;99.90
9305;DHT22;4690;52.422;13.486;2022-07-22T04:09:30;17.70;99.90
9305;DHT22;4690;52.422;13.486;2022-07-22T04:11:56;17.70;99.90
9305;DHT22;4690;52.422;13.486;2022-07-22T04:14:22;17.70;99.90
9305;DHT22;4690;52.422;13.486;2022-07-22T04:16:48;17.70;99.90
9305;DHT22;4690;52.422;13.486;2022-07-22T04:19:14;17.70;99.90
9305;DHT22;4690;52.422;13.486;2022-07-22T04:21:40;17.70;99.90
9305;DHT22;4690;52.422;13.486;2022-07-22T04:24:07;17.70;99.90
9305;DHT22;4690;52.422;13.486;2022-07-22T04:26:33;17.80;99.90
9305;DHT22;4690;52.422;13.486;2022-07-22T04:28:59;17.80;99.90
9305;DHT22;4690;52.422;13.486;2022-07-22T04:31:25;17.90;99.90
9305;DHT22;4690;52.422;13.486;2022-07-22T04:33:51;17.90;99.90
9305;DHT22;4690;52.422;13.486;2022-07-22T04:36:16;18.10;99.90
9305;DHT22;4690;52.422;13.486;2022-07-22T04:38:42;18.20;99.90
9305;DHT22;4690;52.422;13.486;2022-07-22T04:41:08;18.30;99.90
9305;DHT22;4690;52.422;13.486;2022-07-22T04:43:34;18.30;99.90
9305;DHT22;4690;52.422;13.486;2022-07-22T04:45:59;18.40;99.90
9305;DHT22;4690;52.422;13.486;2022-07-22T04:48:25;18.40;99.90
9305;DHT22;4690;52.422;13.486;2022-07-22T04:50:51;18.50;99.90
9305;DHT22;4690;52.422;13.486;2022-07-22T04:53:17;18.60;99.90
9305;DHT22;4690;52.422;13.486;2022-07-22T04:55:42;18.60;99.90
9305;DHT22;4690;52.422;13.486;2022-07-22T04:58:08;18.60;99.90
9305;DHT22;4690;52.422;13.486;2022-07-22T05:00:34;18.60;99.90
9305;DHT22;4690;52.422;13.486;2022-07-22T05:02:59;18.70;99.90
9305;DHT22;4690;52.422;13.486;2022-07-22T05:05:25;18.70;99.90
9305;DHT22;4690;52.422;13.486;2022-07-22T05:07:51;18.70;99.90
9305;DHT22;4690;52.422;13.486;2022-07-22T05:10:17;18.70;99.90
9305;DHT22;4690;52.422;13.486;2022-07-22T05:12:43;18.70;99.90
9305;DHT22;4690;52.422;13.486;2022-07-22T05:15:09;18.70;99.90
9305;DHT22;4690;52.422;13.486;2022-07-22T05:17:35;18.70;99.90
9305;DHT22;4690;52.422;13.486;2022-07-22T05:20:04;18.70;99.90
9305;DHT22;4690;52.422;13.486;2022-07-22T05:22:30;18.70;99.90
9305;DHT22;4690;52.422;13.486;2022-07-22T05:24:56;18.70;99.90
9305;DHT22;4690;52.422;13.486;2022-07-22T05:27:22;18.70;99.90
9305;DHT22;4690;52.422;13.486;2022-07-22T05:29:48;18.80;99.90
9305;DHT22;4690;52.422;13.486;2022-07-22T05:32:14;18.70;99.90
9305;DHT22;4690;52.422;13.486;2022-07-22T05:34:40;18.70;99.90
9305;DHT22;4690;52.422;13.486;2022-07-22T05:37:06;18.70;99.90
9305;DHT22;4690;52.422;13.486;2022-07-22T05:39:32;18.80;99.90
9305;DHT22;4690;52.422;13.486;2022-07-22T05:41:58;18.80;99.90
9305;DHT22;4690;52.422;13.486;2022-07-22T05:44:24;18.80;99.90
9305;DHT22;4690;52.422;13.486;2022-07-22T05:46:49;18.80;99.90
9305;DHT22;4690;52.422;13.486;2022-07-22T05:49:15;18.90;99.90
9305;DHT22;4690;52.422;13.486;2022-07-22T05:51:41;18.90;99.90
9305;DHT22;4690;52.422;13.486;2022-07-22T05:54:07;18.90;99.90
9305;DHT22;4690;52.422;13.486;2022-07-22T05:56:33;18.90;99.90
9305;DHT22;4690;52.422;13.486;2022-07-22T05:58:58;19.00;99.90
9305;DHT22;4690;52.422;13.486;2022-07-22T06:01:24;19.10;99.90
9305;DHT22;4690;52.422;13.486;2022-07-22T06:03:50;19.00;99.90
9305;DHT22;4690;52.422;13.486;2022-07-22T06:06:16;19.00;99.90
9305;DHT22;4690;52.422;13.486;2022-07-22T06:08:42;19.00;99.90
9305;DHT22;4690;52.422;13.486;2022-07-22T06:11:08;19.10;99.90
9305;DHT22;4690;52.422;13.486;2022-07-22T06:13:33;19.10;99.90
9305;DHT22;4690;52.422;13.486;2022-07-22T06:15:59;19.10;99.90
9305;DHT22;4690;52.422;13.486;2022-07-22T06:18:25;19.10;99.90
9305;DHT22;4690;52.422;13.486;2022-07-22T06:20:52;19.20;99.90
9305;DHT22;4690;52.422;13.486;2022-07-22T06:23:18;19.20;99.90
9305;DHT22;4690;52.422;13.486;2022-07-22T06:25:43;19.30;99.90
9305;DHT22;4690;52.422;13.486;2022-07-22T06:28:10;19.30;99.90
9305;DHT22;4690;52.422;13.486;2022-07-22T06:30:36;19.30;99.90
9305;DHT22;4690;52.422;13.486;2022-07-22T06:33:02;19.30;99.90
9305;DHT22;4690;52.422;13.486;2022-07-22T06:35:28;19.40;99.90
9305;DHT22;4690;52.422;13.486;2022-07-22T06:37:54;19.40;99.90
9305;DHT22;4690;52.422;13.486;2022-07-22T06:40:20;19.50;99.90
9305;DHT22;4690;52.422;13.486;2022-07-22T06:42:46;19.60;99.90
9305;DHT22;4690;52.422;13.486;2022-07-22T06:45:12;19.70;99.90
9305;DHT22;4690;52.422;13.486;2022-07-22T06:47:37;19.80;99.90
9305;DHT22;4690;52.422;13.486;2022-07-22T06:50:04;19.90;99.90
9305;DHT22;4690;52.422;13.486;2022-07-22T06:52:31;20.10;99.90
9305;DHT22;4690;52.422;13.486;2022-07-22T06:54:57;20.20;99.90
9305;DHT22;4690;52.422;13.486;2022-07-22T06:57:23;20.40;99.90
9305;DHT22;4690;52.422;13.486;2022-07-22T06:59:49;20.50;99.90
9305;DHT22;4690;52.422;13.486;2022-07-22T07:02:14;20.50;99.90
9305;DHT22;4690;52.422;13.486;2022-07-22T07:04:40;20.60;99.90
9305;DHT22;4690;52.422;13.486;2022-07-22T07:07:07;20.60;99.90
9305;DHT22;4690;52.422;13.486;2022-07-22T07:09:33;20.50;99.90
9305;DHT22;4690;52.422;13.486;2022-07-22T07:11:59;20.50;99.90
9305;DHT22;4690;52.422;13.486;2022-07-22T07:14:24;20.50;99.90
9305;DHT22;4690;52.422;13.486;2022-07-22T07:16:50;20.50;99.90
9305;DHT22;4690;52.422;13.486;2022-07-22T07:19:16;20.60;99.90
9305;DHT22;4690;52.422;13.486;2022-07-22T07:21:41;20.50;99.90
9305;DHT22;4690;52.422;13.486;2022-07-22T07:24:07;20.60;99.90
9305;DHT22;4690;52.422;13.486;2022-07-22T07:26:33;20.70;99.90
9305;DHT22;4690;52.422;13.486;2022-07-22T07:28:59;20.80;99.90
9305;DHT22;4690;52.422;13.486;2022-07-22T07:31:24;21.00;99.90
9305;DHT22;4690;52.422;13.486;2022-07-22T07:33:50;21.10;99.90
9305;DHT22;4690;52.422;13.486;2022-07-22T07:36:16;21.30;99.90
9305;DHT22;4690;52.422;13.486;2022-07-22T07:38:42;21.60;99.90
9305;DHT22;4690;52.422;13.486;2022-07-22T07:41:08;22.00;99.90
9305;DHT22;4690;52.422;13.486;2022-07-22T07:43:34;22.10;99.90
9305;DHT22;4690;52.422;13.486;2022-07-22T07:46:00;22.20;99.90
9305;DHT22;4690;52.422;13.486;2022-07-22T07:48:26;22.30;99.90
9305;DHT22;4690;52.422;13.486;2022-07-22T07:50:52;22.30;99.90
9305;DHT22;4690;52.422;13.486;2022-07-22T07:53:18;22.30;99.90
9305;DHT22;4690;52.422;13.486;2022-07-22T07:55:44;22.40;99.90
9305;DHT22;4690;52.422;13.486;2022-07-22T07:58:10;22.50;99.90
9305;DHT22;4690;52.422;13.486;2022-07-22T08:00:36;22.50;99.90
9305;DHT22;4690;52.422;13.486;2022-07-22T08:03:03;22.50;99.90
9305;DHT22;4690;52.422;13.486;2022-07-22T08:05:29;22.40;99.90
9305;DHT22;4690;52.422;13.486;2022-07-22T08:07:55;22.40;99.90
9305;DHT22;4690;52.422;13.486;2022-07-22T08:10:21;22.50;99.90
9305;DHT22;4690;52.422;13.486;2022-07-22T08:12:48;22.50;99.90
9305;DHT22;4690;52.422;13.486;2022-07-22T08:15:14;22.50;99.90
9305;DHT22;4690;52.422;13.486;2022-07-22T08:17:40;22.50;99.90
9305;DHT22;4690;52.422;13.486;2022-07-22T08:20:06;22.40;99.90
9305;DHT22;4690;52.422;13.486;2022-07-22T08:22:34;22.70;99.90
9305;DHT22;4690;52.422;13.486;2022-07-22T08:24:59;22.70;99.90
9305;DHT22;4690;52.422;13.486;2022-07-22T08:27:25;22.60;99.90
9305;DHT22;4690;52.422;13.486;2022-07-22T08:29:51;22.70;99.90
9305;DHT22;4690;52.422;13.486;2022-07-22T08:32:16;22.80;99.90
9305;DHT22;4690;52.422;13.486;2022-07-22T08:34:42;22.90;99.90
9305;DHT22;4690;52.422;13.486;2022-07-22T08:37:08;23.20;99.90
9305;DHT22;4690;52.422;13.486;2022-07-22T08:39:34;23.20;99.90
9305;DHT22;4690;52.422;13.486;2022-07-22T08:42:00;23.00;99.90
9305;DHT22;4690;52.422;13.486;2022-07-22T08:44:30;23.10;99.90
9305;DHT22;4690;52.422;13.486;2022-07-22T08:46:57;22.80;99.90
9305;DHT22;4690;52.422;13.486;2022-07-22T08:49:24;22.70;99.90
9305;DHT22;4690;52.422;13.486;2022-07-22T08:51:50;22.70;99.90
9305;DHT22;4690;52.422;13.486;2022-07-22T08:54:16;22.70;99.90
9305;DHT22;4690;52.422;13.486;2022-07-22T08:56:49;23.00;99.90
9305;DHT22;4690;52.422;13.486;2022-07-22T08:59:16;23.30;99.90
9305;DHT22;4690;52.422;13.486;2022-07-22T09:02:11;23.50;99.90
9305;DHT22;4690;52.422;13.486;2022-07-22T09:05:03;23.20;99.90
9305;DHT22;4690;52.422;13.486;2022-07-22T09:07:37;23.00;99.90
9305;DHT22;4690;52.422;13.486;2022-07-22T09:10:07;22.90;99.90
9305;DHT22;4690;52.422;13.486;2022-07-22T09:12:52;22.80;99.90
9305;DHT22;4690;52.422;13.486;2022-07-22T09:15:33;22.80;99.90
9305;DHT22;4690;52.422;13.486;2022-07-22T09:18:05;22.80;99.90
9305;DHT22;4690;52.422;13.486;2022-07-22T09:20:35;22.90;99.90
9305;DHT22;4690;52.422;13.486;2022-07-22T09:23:09;23.00;99.90
9305;DHT22;4690;52.422;13.486;2022-07-22T09:25:47;22.90;99.90
9305;DHT22;4690;52.422;13.486;2022-07-22T09:28:17;22.80;99.90
9305;DHT22;4690;52.422;13.486;2022-07-22T09:30:52;22.70;99.90
9305;DHT22;4690;52.422;13.486;2022-07-22T09:33:20;22.70;99.90
9305;DHT22;4690;52.422;13.486;2022-07-22T09:35:47;22.70;99.90
9305;DHT22;4690;52.422;13.486;2022-07-22T09:38:15;22.70;99.90
9305;DHT22;4690;52.422;13.486;2022-07-22T09:40:44;22.70;99.90
9305;DHT22;4690;52.422;13.486;2022-07-22T09:43:13;22.80;99.90
9305;DHT22;4690;52.422;13.486;2022-07-22T09:45:47;22.80;99.90
9305;DHT22;4690;52.422;13.486;2022-07-22T09:48:16;22.80;99.90
9305;DHT22;4690;52.422;13.486;2022-07-22T09:50:44;22.80;99.90
9305;DHT22;4690;52.422;13.486;2022-07-22T09:53:10;22.80;99.90
9305;DHT22;4690;52.422;13.486;2022-07-22T09:55:38;22.60;99.90
9305;DHT22;4690;52.422;13.486;2022-07-22T09:58:04;22.50;99.90
9305;DHT22;4690;52.422;13.486;2022-07-22T10:00:35;22.40;99.90
9305;DHT22;4690;52.422;13.486;2022-07-22T10:03:05;22.30;99.90
9305;DHT22;4690;52.422;13.486;2022-07-22T10:05:35;22.30;99.90
9305;DHT22;4690;52.422;13.486;2022-07-22T10:08:05;22.20;99.90
9305;DHT22;4690;52.422;13.486;2022-07-22T10:10:33;22.20;99.90
9305;DHT22;4690;52.422;13.486;2022-07-22T10:13:03;22.20;99.90
9305;DHT22;4690;52.422;13.486;2022-07-22T10:15:31;22.20;99.90
9305;DHT22;4690;52.422;13.486;2022-07-22T10:18:00;22.10;99.90
9305;DHT22;4690;52.422;13.486;2022-07-22T10:20:30;22.20;99.90
9305;DHT22;4690;52.422;13.486;2022-07-22T10:23:05;22.10;99.90
9305;DHT22;4690;52.422;13.486;2022-07-22T10:25:53;22.20;99.90
9305;DHT22;4690;52.422;13.486;2022-07-22T10:28:32;22.30;99.90
9305;DHT22;4690;52.422;13.486;2022-07-22T10:33:48;22.70;99.90
9305;DHT22;4690;52.422;13.486;2022-07-22T10:36:38;22.80;99.90
9305;DHT22;4690;52.422;13.486;2022-07-22T10:39:11;23.00;99.90
9305;DHT22;4690;52.422;13.486;2022-07-22T10:41:43;23.20;99.90
9305;DHT22;4690;52.422;13.486;2022-07-22T10:44:11;23.70;99.90
9305;DHT22;4690;52.422;13.486;2022-07-22T10:46:51;24.00;99.90
9305;DHT22;4690;52.422;13.486;2022-07-22T10:49:20;24.00;99.90
9305;DHT22;4690;52.422;13.486;2022-07-22T10:54:32;23.90;99.90
9305;DHT22;4690;52.422;13.486;2022-07-22T10:56:59;23.90;99.90
9305;DHT22;4690;52.422;13.486;2022-07-22T10:59:25;23.80;99.90
9305;DHT22;4690;52.422;13.486;2022-07-22T11:01:52;23.70;99.90
9305;DHT22;4690;52.422;13.486;2022-07-22T11:04:26;23.80;99.90
9305;DHT22;4690;52.422;13.486;2022-07-22T11:06:56;23.80;99.90
9305;DHT22;4690;52.422;13.486;2022-07-22T11:09:31;24.00;99.90
9305;DHT22;4690;52.422;13.486;2022-07-22T11:11:58;24.10;99.90
9305;DHT22;4690;52.422;13.486;2022-07-22T11:14:27;24.30;99.90
9305;DHT22;4690;52.422;13.486;2022-07-22T11:17:06;24.60;99.90
9305;DHT22;4690;52.422;13.486;2022-07-22T11:19:35;24.70;99.90
9305;DHT22;4690;52.422;13.486;2022-07-22T11:22:10;24.70;99.90
9305;DHT22;4690;52.422;13.486;2022-07-22T11:24:39;24.30;99.90
9305;DHT22;4690;52.422;13.486;2022-07-22T11:27:13;24.30;99.90
9305;DHT22;4690;52.422;13.486;2022-07-22T11:29:40;24.30;99.90
9305;DHT22;4690;52.422;13.486;2022-07-22T11:32:11;24.20;99.90
9305;DHT22;4690;52.422;13.486;2022-07-22T11:34:40;24.00;99.90
9305;DHT22;4690;52.422;13.486;2022-07-22T11:37:14;23.90;99.90
9305;DHT22;4690;52.422;13.486;2022-07-22T11:39:41;23.80;99.90
9305;DHT22;4690;52.422;13.486;2022-07-22T11:42:07;23.70;99.90
9305;DHT22;4690;52.422;13.486;2022-07-22T11:44:35;23.70;99.90
9305;DHT22;4690;52.422;13.486;2022-07-22T11:47:04;23.70;99.90
9305;DHT22;4690;52.422;13.486;2022-07-22T11:49:33;23.70;99.90
9305;DHT22;4690;52.422;13.486;2022-07-22T11:52:01;23.80;99.90
9305;DHT22;4690;52.422;13.486;2022-07-22T11:54:28;23.90;99.90
9305;DHT22;4690;52.422;13.486;2022-07-22T11:56:54;24.00;99.90
9305;DHT22;4690;52.422;13.486;2022-07-22T11:59:21;24.00;99.90
9305;DHT22;4690;52.422;13.486;2022-07-22T12:01:48;24.10;99.90
9305;DHT22;4690;52.422;13.486;2022-07-22T12:04:16;24.10;99.90
9305;DHT22;4690;52.422;13.486;2022-07-22T12:06:45;24.20;99.90
9305;DHT22;4690;52.422;13.486;2022-07-22T12:09:19;24.30;99.90
9305;DHT22;4690;52.422;13.486;2022-07-22T12:11:51;24.20;99.90
9305;DHT22;4690;52.422;13.486;2022-07-22T12:14:24;24.30;99.90
9305;DHT22;4690;52.422;13.486;2022-07-22T12:16:59;24.30;99.90
9305;DHT22;4690;52.422;13.486;2022-07-22T12:19:28;24.30;99.90
9305;DHT22;4690;52.422;13.486;2022-07-22T12:22:04;24.50;99.90
9305;DHT22;4690;52.422;13.486;2022-07-22T12:27:06;24.50;99.90
9305;DHT22;4690;52.422;13.486;2022-07-22T12:29:47;24.40;99.90
9305;DHT22;4690;52.422;13.486;2022-07-22T12:34:48;24.50;99.90
9305;DHT22;4690;52.422;13.486;2022-07-22T12:40:08;24.40;99.90
9305;DHT22;4690;52.422;13.486;2022-07-22T12:42:42;24.40;99.90
9305;DHT22;4690;52.422;13.486;2022-07-22T12:50:43;24.50;99.90
9305;DHT22;4690;52.422;13.486;2022-07-22T12:53:29;24.50;99.90
9305;DHT22;4690;52.422;13.486;2022-07-22T12:55:58;24.60;99.90
9305;DHT22;4690;52.422;13.486;2022-07-22T12:58:27;24.60;99.90
9305;DHT22;4690;52.422;13.486;2022-07-22T13:01:00;24.80;99.90
9305;DHT22;4690;52.422;13.486;2022-07-22T13:03:27;24.80;99.90
9305;DHT22;4690;52.422;13.486;2022-07-22T13:05:57;24.80;99.90
9305;DHT22;4690;52.422;13.486;2022-07-22T13:08:25;24.90;99.90
9305;DHT22;4690;52.422;13.486;2022-07-22T13:10:52;24.80;99.90
9305;DHT22;4690;52.422;13.486;2022-07-22T13:13:19;24.70;99.90
9305;DHT22;4690;52.422;13.486;2022-07-22T13:15:46;24.60;99.90
9305;DHT22;4690;52.422;13.486;2022-07-22T13:18:12;24.50;99.90
9305;DHT22;4690;52.422;13.486;2022-07-22T13:20:38;24.50;99.90
9305;DHT22;4690;52.422;13.486;2022-07-22T13:23:04;24.60;99.90
9305;DHT22;4690;52.422;13.486;2022-07-22T13:25:30;24.80;99.90
9305;DHT22;4690;52.422;13.486;2022-07-22T13:27:58;24.90;99.90
9305;DHT22;4690;52.422;13.486;2022-07-22T13:30:24;25.40;99.90
9305;DHT22;4690;52.422;13.486;2022-07-22T13:32:50;25.30;99.90
9305;DHT22;4690;52.422;13.486;2022-07-22T13:35:16;25.20;99.90
9305;DHT22;4690;52.422;13.486;2022-07-22T13:37:43;25.00;99.90
9305;DHT22;4690;52.422;13.486;2022-07-22T13:40:10;24.90;99.90
9305;DHT22;4690;52.422;13.486;2022-07-22T13:42:36;24.70;99.90
9305;DHT22;4690;52.422;13.486;2022-07-22T13:45:03;24.60;99.90
9305;DHT22;4690;52.422;13.486;2022-07-22T13:47:29;24.90;99.90
9305;DHT22;4690;52.422;13.486;2022-07-22T13:49:55;25.00;99.90
9305;DHT22;4690;52.422;13.486;2022-07-22T13:52:22;25.40;99.90
9305;DHT22;4690;52.422;13.486;2022-07-22T13:54:48;25.80;99.90
9305;DHT22;4690;52.422;13.486;2022-07-22T13:57:15;25.90;99.90
9305;DHT22;4690;52.422;13.486;2022-07-22T13:59:41;25.90;99.90
9305;DHT22;4690;52.422;13.486;2022-07-22T14:02:07;26.00;99.90
9305;DHT22;4690;52.422;13.486;2022-07-22T14:04:33;26.20;99.90
9305;DHT22;4690;52.422;13.486;2022-07-22T14:06:59;26.20;99.90
9305;DHT22;4690;52.422;13.486;2022-07-22T14:09:25;25.90;99.90
9305;DHT22;4690;52.422;13.486;2022-07-22T14:11:51;25.90;99.90
9305;DHT22;4690;52.422;13.486;2022-07-22T14:14:17;26.00;99.90
9305;DHT22;4690;52.422;13.486;2022-07-22T14:16:42;26.30;99.90
9305;DHT22;4690;52.422;13.486;2022-07-22T14:19:10;26.40;99.90
9305;DHT22;4690;52.422;13.486;2022-07-22T14:21:40;26.40;99.90
9305;DHT22;4690;52.422;13.486;2022-07-22T14:24:08;26.50;99.90
9305;DHT22;4690;52.422;13.486;2022-07-22T14:26:35;26.30;99.90
9305;DHT22;4690;52.422;13.486;2022-07-22T14:29:03;26.40;99.90
9305;DHT22;4690;52.422;13.486;2022-07-22T14:31:31;26.00;99.90
9305;DHT22;4690;52.422;13.486;2022-07-22T14:33:57;25.70;99.90
9305;DHT22;4690;52.422;13.486;2022-07-22T14:36:23;25.30;99.90
9305;DHT22;4690;52.422;13.486;2022-07-22T14:38:50;25.60;99.90
9305;DHT22;4690;52.422;13.486;2022-07-22T14:41:17;25.80;99.90
9305;DHT22;4690;52.422;13.486;2022-07-22T14:43:43;25.70;99.90
9305;DHT22;4690;52.422;13.486;2022-07-22T14:46:08;25.70;99.90
9305;DHT22;4690;52.422;13.486;2022-07-22T14:48:37;25.90;99.90
9305;DHT22;4690;52.422;13.486;2022-07-22T14:51:04;26.10;99.90
9305;DHT22;4690;52.422;13.486;2022-07-22T14:53:31;26.00;99.90
9305;DHT22;4690;52.422;13.486;2022-07-22T14:55:57;25.90;99.90
9305;DHT22;4690;52.422;13.486;2022-07-22T14:58:23;25.90;99.90
9305;DHT22;4690;52.422;13.486;2022-07-22T15:00:50;25.80;99.90
9305;DHT22;4690;52.422;13.486;2022-07-22T15:03:16;25.60;99.90
9305;DHT22;4690;52.422;13.486;2022-07-22T15:05:41;25.40;99.90
9305;DHT22;4690;52.422;13.486;2022-07-22T15:08:08;25.20;99.90
9305;DHT22;4690;52.422;13.486;2022-07-22T15:10:34;25.40;99.90
9305;DHT22;4690;52.422;13.486;2022-07-22T15:13:00;25.40;99.90
9305;DHT22;4690;52.422;13.486;2022-07-22T15:15:26;25.50;99.90
9305;DHT22;4690;52.422;13.486;2022-07-22T15:17:52;25.60;99.90
9305;DHT22;4690;52.422;13.486;2022-07-22T15:20:17;25.70;99.90
9305;DHT22;4690;52.422;13.486;2022-07-22T15:22:43;25.60;99.90
9305;DHT22;4690;52.422;13.486;2022-07-22T15:25:12;25.50;99.90
9305;DHT22;4690;52.422;13.486;2022-07-22T15:27:38;25.50;99.90
9305;DHT22;4690;52.422;13.486;2022-07-22T15:30:08;25.60;99.90
9305;DHT22;4690;52.422;13.486;2022-07-22T15:32:36;25.50;99.90
9305;DHT22;4690;52.422;13.486;2022-07-22T15:35:04;25.30;99.90
9305;DHT22;4690;52.422;13.486;2022-07-22T15:37:31;25.30;99.90
9305;DHT22;4690;52.422;13.486;2022-07-22T15:39:56;25.20;99.90
9305;DHT22;4690;52.422;13.486;2022-07-22T15:42:22;25.20;99.90
9305;DHT22;4690;52.422;13.486;2022-07-22T15:44:48;25.10;99.90
9305;DHT22;4690;52.422;13.486;2022-07-22T15:47:14;25.00;99.90
9305;DHT22;4690;52.422;13.486;2022-07-22T15:49:39;25.00;99.90
9305;DHT22;4690;52.422;13.486;2022-07-22T15:52:05;24.90;99.90
9305;DHT22;4690;52.422;13.486;2022-07-22T15:54:31;24.90;99.90
9305;DHT22;4690;52.422;13.486;2022-07-22T15:56:57;25.00;99.90
9305;DHT22;4690;52.422;13.486;2022-07-22T15:59:42;25.00;99.90
9305;DHT22;4690;52.422;13.486;2022-07-22T16:02:08;25.00;99.90
9305;DHT22;4690;52.422;13.486;2022-07-22T16:04:34;25.00;99.90
9305;DHT22;4690;52.422;13.486;2022-07-22T16:07:00;25.00;99.90
9305;DHT22;4690;52.422;13.486;2022-07-22T16:09:26;24.90;99.90